createdAt,value
2022-07-26T00:01:38.334Z,23.85
2022-07-26T00:04:09.202Z,22.88
2022-07-26T00:06:40.946Z,20.77
2022-07-26T00:09:11.643Z,19.17
2022-07-26T00:11:42.544Z,16.02
2022-07-26T00:14:13.492Z,18.02
2022-07-26T00:16:44.142Z,21.35
2022-07-26T00:19:14.618Z,21.73
2022-07-26T00:21:45.384Z,12.68
2022-07-26T00:24:15.979Z,19.90
2022-07-26T00:26:46.440Z,17.05
2022-07-26T00:29:17.184Z,24.02
2022-07-26T00:31:47.793Z,19.77
2022-07-26T00:34:18.348Z,14.68
2022-07-26T00:36:48.913Z,15.23
2022-07-26T00:39:19.386Z,19.73
2022-07-26T00:41:49.885Z,19.85
2022-07-26T00:44:20.495Z,19.88
2022-07-26T00:46:51.154Z,18.13
2022-07-26T00:49:21.738Z,21.52
2022-07-26T00:51:52.389Z,21.42
2022-07-26T00:54:22.809Z,20.08
2022-07-26T00:56:55.272Z,18.40
2022-07-26T00:59:26.341Z,20.20
2022-07-26T01:01:57.097Z,19.88
2022-07-26T01:04:28.689Z,18.42
2022-07-26T01:06:59.981Z,23.88
2022-07-26T01:09:31.201Z,19.63
2022-07-26T01:12:03.911Z,17.60
2022-07-26T01:14:34.392Z,13.95
2022-07-26T01:17:05.038Z,14.75
2022-07-26T01:19:35.472Z,21.45
2022-07-26T01:22:07.160Z,23.70
2022-07-26T01:24:40.360Z,21.25
2022-07-26T01:27:11.954Z,20.23
2022-07-26T01:29:42.488Z,14.55
2022-07-26T01:32:13.076Z,13.07
2022-07-26T01:34:43.566Z,11.13
2022-07-26T01:37:14.215Z,16.90
2022-07-26T01:39:46.983Z,32.38
2022-07-26T01:42:17.480Z,42.70
2022-07-26T01:44:48.054Z,43.65
2022-07-26T01:47:18.629Z,41.22
2022-07-26T01:49:49.164Z,40.47
2022-07-26T01:52:20.149Z,41.58
2022-07-26T01:54:50.666Z,34.90
2022-07-26T01:57:21.352Z,27.40
2022-07-26T01:59:51.793Z,24.17
2022-07-26T02:02:22.510Z,21.40
2022-07-26T02:05:03.734Z,25.65
2022-07-26T02:07:43.100Z,19.75
2022-07-26T02:10:16.240Z,15.98
2022-07-26T02:12:46.818Z,8.30
2022-07-26T02:15:17.745Z,11.45
2022-07-26T02:17:48.273Z,9.27
2022-07-26T02:20:19.026Z,5.75
2022-07-26T02:22:49.528Z,6.43
2022-07-26T02:25:20.022Z,8.32
2022-07-26T02:27:50.574Z,7.90
2022-07-26T02:30:21.132Z,6.03
2022-07-26T02:32:51.932Z,6.05
2022-07-26T02:35:22.475Z,5.93
2022-07-26T02:37:52.979Z,6.07
2022-07-26T02:40:23.724Z,10.32
2022-07-26T02:42:54.319Z,5.30
2022-07-26T02:45:24.938Z,9.65
2022-07-26T02:47:57.447Z,8.52
2022-07-26T02:50:29.394Z,8.57
2022-07-26T02:53:00.263Z,9.00
2022-07-26T02:55:30.833Z,10.55
2022-07-26T02:58:01.404Z,10.80
2022-07-26T03:00:31.866Z,10.45
2022-07-26T03:03:02.384Z,9.00
2022-07-26T03:05:32.984Z,10.23
2022-07-26T03:08:04.055Z,10.35
2022-07-26T03:10:34.815Z,9.48
2022-07-26T03:13:05.403Z,11.23
2022-07-26T03:15:35.953Z,10.50
2022-07-26T03:18:06.579Z,11.02
2022-07-26T03:20:37.125Z,9.98
2022-07-26T03:23:07.630Z,11.20
2022-07-26T03:25:38.625Z,10.73
2022-07-26T03:28:09.343Z,12.02
2022-07-26T03:30:39.726Z,12.18
2022-07-26T03:33:10.353Z,11.75
2022-07-26T03:35:40.780Z,11.23
2022-07-26T03:38:12.266Z,14.77
2022-07-26T03:43:12.520Z,10.30
2022-07-26T03:45:44.309Z,11.85
2022-07-26T03:48:14.999Z,8.98
2022-07-26T03:50:45.586Z,11.45
2022-07-26T03:53:16.642Z,12.15
2022-07-26T03:56:05.035Z,14.10
2022-07-26T03:58:35.686Z,12.73
2022-07-26T04:01:07.996Z,12.90
2022-07-26T04:03:38.590Z,15.90
2022-07-26T04:06:11.021Z,10.35
2022-07-26T04:08:42.902Z,12.02
2022-07-26T04:11:13.718Z,9.00
2022-07-26T04:13:44.239Z,9.90
2022-07-26T04:16:17.141Z,10.13
2022-07-26T04:18:47.637Z,12.50
2022-07-26T04:21:18.726Z,11.68
2022-07-26T04:23:51.323Z,10.73
2022-07-26T04:26:23.142Z,8.85
2022-07-26T04:28:53.763Z,10.40
2022-07-26T04:31:27.357Z,11.95
2022-07-26T04:34:05.875Z,10.10
2022-07-26T04:36:36.614Z,10.57
2022-07-26T04:39:07.178Z,14.45
2022-07-26T04:41:39.193Z,12.23
2022-07-26T04:44:10.768Z,8.85
2022-07-26T04:46:44.853Z,10.23
2022-07-26T04:49:15.831Z,17.77
2022-07-26T04:51:46.322Z,9.98
2022-07-26T04:54:21.883Z,11.38
2022-07-26T04:56:52.388Z,14.40
2022-07-26T05:01:52.901Z,10.02
2022-07-26T05:04:23.521Z,12.82
2022-07-26T05:09:24.181Z,10.48
2022-07-26T05:11:54.694Z,15.32
2022-07-26T05:16:54.684Z,11.75
2022-07-26T05:19:27.549Z,10.05
2022-07-26T05:21:57.806Z,13.05
2022-07-26T05:24:28.371Z,13.40
2022-07-26T05:26:58.974Z,17.38
2022-07-26T05:29:29.474Z,12.52
2022-07-26T05:31:59.937Z,10.02
2022-07-26T05:34:30.618Z,11.63
2022-07-26T05:37:01.366Z,10.80
2022-07-26T05:39:32.676Z,10.57
2022-07-26T05:42:03.282Z,12.90
2022-07-26T05:44:33.869Z,19.40
2022-07-26T05:47:04.678Z,9.95
2022-07-26T05:49:40.465Z,12.77
2022-07-26T05:54:42.969Z,12.65
2022-07-26T05:57:13.553Z,13.05
2022-07-26T05:59:44.154Z,12.02
2022-07-26T06:02:14.858Z,8.05
2022-07-26T06:04:47.332Z,9.82
2022-07-26T06:07:18.776Z,13.27
2022-07-26T06:09:49.804Z,14.15
2022-07-26T06:12:20.342Z,10.23
2022-07-26T06:14:50.913Z,13.65
2022-07-26T06:17:21.458Z,13.23
2022-07-26T06:19:52.078Z,16.95
2022-07-26T06:22:22.501Z,12.63
2022-07-26T06:24:53.214Z,16.42
2022-07-26T06:27:23.708Z,11.75
2022-07-26T06:29:54.746Z,19.05
2022-07-26T06:32:25.194Z,22.63
2022-07-26T06:34:55.747Z,10.10
2022-07-26T06:37:26.181Z,14.70
2022-07-26T06:39:56.865Z,12.55
2022-07-26T06:42:27.770Z,9.98
2022-07-26T06:44:59.100Z,13.52
2022-07-26T06:47:30.138Z,13.55
2022-07-26T06:50:00.564Z,18.85
2022-07-26T06:52:31.170Z,14.02
2022-07-26T06:55:03.142Z,11.00
2022-07-26T06:57:33.617Z,13.18
2022-07-26T07:00:16.113Z,15.38
2022-07-26T07:02:46.895Z,11.07
2022-07-26T07:05:17.578Z,16.13
2022-07-26T07:07:48.173Z,12.30
2022-07-26T07:10:19.769Z,8.57
2022-07-26T07:12:53.520Z,9.82
2022-07-26T07:17:53.778Z,9.13
2022-07-26T07:20:24.261Z,9.55
2022-07-26T07:22:54.691Z,6.05
2022-07-26T07:25:30.692Z,7.78
2022-07-26T07:28:01.717Z,9.02
2022-07-26T07:30:31.989Z,5.65
2022-07-26T07:33:03.590Z,8.02
2022-07-26T07:35:34.201Z,7.13
2022-07-26T07:38:06.780Z,5.38
2022-07-26T07:40:37.708Z,6.82
2022-07-26T07:43:08.184Z,8.30
2022-07-26T07:45:38.691Z,7.43
2022-07-26T07:48:09.277Z,6.68
2022-07-26T07:50:39.809Z,9.13
2022-07-26T07:53:10.157Z,7.07
2022-07-26T07:55:43.929Z,6.47
2022-07-26T07:58:18.996Z,6.97
2022-07-26T08:00:50.042Z,5.30
2022-07-26T08:03:21.034Z,7.57
2022-07-26T08:05:51.754Z,5.20
2022-07-26T08:08:22.914Z,8.55
2022-07-26T08:10:54.628Z,4.85
2022-07-26T08:13:27.260Z,6.53
2022-07-26T08:15:59.449Z,7.60
2022-07-26T08:18:31.400Z,7.90
2022-07-26T08:21:02.023Z,5.95
2022-07-26T08:23:32.647Z,6.28
2022-07-26T08:26:06.652Z,8.25
2022-07-26T08:28:47.233Z,4.55
2022-07-26T08:31:21.456Z,5.78
2022-07-26T08:33:51.911Z,6.35
2022-07-26T08:36:22.390Z,8.30
2022-07-26T08:38:53.795Z,7.45
2022-07-26T08:41:24.594Z,5.50
2022-07-26T08:43:55.274Z,6.55
2022-07-26T08:46:27.982Z,8.20
2022-07-26T08:48:58.946Z,10.27
2022-07-26T08:51:29.511Z,7.88
2022-07-26T08:54:05.844Z,7.70
2022-07-26T08:56:39.929Z,7.65
2022-07-26T08:59:21.296Z,10.23
2022-07-26T09:02:07.500Z,9.32
2022-07-26T09:04:44.691Z,8.77
2022-07-26T09:07:20.476Z,8.15
2022-07-26T09:10:12.343Z,10.60
2022-07-26T09:12:44.214Z,9.30
2022-07-26T09:15:22.796Z,8.85
2022-07-26T09:17:57.468Z,10.13
2022-07-26T09:20:33.368Z,10.40
2022-07-26T09:23:15.162Z,21.95
2022-07-26T09:25:47.366Z,8.68
2022-07-26T09:28:32.361Z,7.95
2022-07-26T09:31:05.600Z,11.68
2022-07-26T09:33:51.155Z,9.80
2022-07-26T09:36:22.864Z,11.55
2022-07-26T09:39:00.258Z,10.02
2022-07-26T09:41:33.761Z,15.10
2022-07-26T09:44:07.492Z,15.30
2022-07-26T09:46:58.450Z,8.93
2022-07-26T09:49:40.710Z,16.33
2022-07-26T09:52:22.213Z,9.60
2022-07-26T09:54:52.951Z,9.98
2022-07-26T09:57:23.456Z,11.20
2022-07-26T09:59:54.498Z,8.32
2022-07-26T10:02:24.992Z,8.60
2022-07-26T10:04:55.587Z,10.85
2022-07-26T10:07:26.249Z,5.55
2022-07-26T10:10:06.092Z,5.63
2022-07-26T10:12:37.684Z,10.43
2022-07-26T10:15:09.298Z,6.22
2022-07-26T10:17:44.089Z,5.43
2022-07-26T10:20:45.713Z,6.90
2022-07-26T10:23:40.665Z,7.72
2022-07-26T10:26:13.945Z,10.93
2022-07-26T10:28:44.558Z,7.00
2022-07-26T10:31:28.296Z,5.97
2022-07-26T10:34:00.564Z,7.97
2022-07-26T10:36:39.290Z,9.27
2022-07-26T10:39:14.312Z,6.70
2022-07-26T10:41:58.578Z,7.95
2022-07-26T10:44:31.323Z,3.75
2022-07-26T10:47:05.244Z,6.22
2022-07-26T10:49:46.757Z,4.57
2022-07-26T10:52:27.562Z,5.07
2022-07-26T10:55:07.700Z,5.57
2022-07-26T10:57:44.450Z,4.07
2022-07-26T11:00:24.148Z,4.32
2022-07-26T11:03:01.528Z,8.48
2022-07-26T11:05:35.957Z,3.83
2022-07-26T11:08:11.409Z,2.45
2022-07-26T11:10:50.383Z,2.33
2022-07-26T11:13:23.053Z,2.38
2022-07-26T11:16:01.287Z,3.95
2022-07-26T11:18:37.562Z,2.80
2022-07-26T11:21:14.152Z,2.75
2022-07-26T11:23:47.673Z,6.25
2022-07-26T11:26:24.644Z,2.50
2022-07-26T11:29:06.342Z,2.80
2022-07-26T11:31:55.576Z,2.72
2022-07-26T11:34:34.544Z,9.00
2022-07-26T11:37:06.851Z,2.90
2022-07-26T11:39:38.270Z,3.85
2022-07-26T11:42:11.353Z,7.57
2022-07-26T11:44:46.453Z,3.80
2022-07-26T11:47:25.517Z,11.90
2022-07-26T11:52:47.681Z,4.13
2022-07-26T11:55:31.106Z,2.88
2022-07-26T11:58:11.520Z,3.13
2022-07-26T12:00:42.069Z,3.67
2022-07-26T12:03:12.611Z,3.03
2022-07-26T12:05:43.587Z,3.35
2022-07-26T12:08:14.176Z,5.55
2022-07-26T12:10:44.763Z,3.10
2022-07-26T12:13:17.523Z,4.30
2022-07-26T12:15:53.616Z,4.05
2022-07-26T12:18:26.144Z,4.85
2022-07-26T12:21:08.005Z,4.80
2022-07-26T12:23:50.055Z,6.32
2022-07-26T12:26:25.571Z,6.43
2022-07-26T12:28:57.263Z,6.97
2022-07-26T12:31:33.202Z,4.65
2022-07-26T12:34:03.916Z,4.68
2022-07-26T12:36:36.693Z,5.38
2022-07-26T12:39:07.799Z,5.57
2022-07-26T12:41:42.091Z,4.57
2022-07-26T12:44:14.145Z,5.03
2022-07-26T12:46:48.666Z,4.80
2022-07-26T13:00:54.257Z,8.82
2022-07-26T13:03:25.241Z,5.68
2022-07-26T13:05:55.983Z,5.13
2022-07-26T13:08:26.482Z,6.10
2022-07-26T13:11:00.074Z,3.88
2022-07-26T13:13:31.437Z,4.47
2022-07-26T13:16:01.877Z,6.05
2022-07-26T13:18:32.439Z,5.30
2022-07-26T13:21:03.090Z,4.13
2022-07-26T13:23:35.068Z,5.18
2022-07-26T13:26:08.414Z,6.38
2022-07-26T13:28:41.795Z,7.22
2022-07-26T13:31:14.093Z,10.05
2022-07-26T13:33:44.944Z,7.10
2022-07-26T13:36:15.582Z,5.95
2022-07-26T13:38:46.074Z,9.38
2022-07-26T13:41:16.567Z,5.95
2022-07-26T13:43:47.591Z,5.28
2022-07-26T13:46:18.288Z,6.45
2022-07-26T13:49:00.520Z,7.25
2022-07-26T13:51:52.632Z,4.78
2022-07-26T13:54:24.730Z,7.13
2022-07-26T13:56:56.029Z,7.63
2022-07-26T13:59:27.632Z,5.60
2022-07-26T14:01:59.218Z,8.18
2022-07-26T14:04:29.945Z,5.43
2022-07-26T14:07:00.474Z,7.00
2022-07-26T14:09:30.900Z,6.57
2022-07-26T14:12:01.603Z,8.60
2022-07-26T14:14:32.347Z,5.07
2022-07-26T14:17:02.963Z,7.55
2022-07-26T14:19:33.579Z,5.80
2022-07-26T14:22:04.318Z,11.55
2022-07-26T14:24:34.787Z,6.03
2022-07-26T14:27:05.834Z,9.52
2022-07-26T14:29:36.357Z,5.30
2022-07-26T14:32:07.137Z,5.13
2022-07-26T14:34:37.706Z,9.35
2022-07-26T14:37:15.254Z,5.88
2022-07-26T14:39:59.390Z,7.22
2022-07-26T14:42:30.173Z,4.95
2022-07-26T14:45:00.834Z,10.10
2022-07-26T14:47:31.280Z,6.15
2022-07-26T14:50:06.567Z,5.80
2022-07-26T14:52:47.328Z,7.85
2022-07-26T14:55:24.838Z,6.05
2022-07-26T14:57:56.021Z,11.75
2022-07-26T15:00:26.519Z,6.07
2022-07-26T15:02:57.604Z,8.30
2022-07-26T15:05:29.134Z,7.95
2022-07-26T15:08:04.138Z,8.50
2022-07-26T15:10:36.513Z,4.82
2022-07-26T15:13:09.148Z,5.82
2022-07-26T15:15:39.593Z,6.10
2022-07-26T15:18:10.527Z,9.00
2022-07-26T15:20:42.477Z,4.07
2022-07-26T15:23:13.476Z,7.03
2022-07-26T15:25:43.971Z,4.88
2022-07-26T15:28:14.857Z,4.65
2022-07-26T15:30:45.385Z,6.95
2022-07-26T15:33:21.527Z,5.53
2022-07-26T15:35:54.474Z,10.20
2022-07-26T15:38:25.090Z,6.35
2022-07-26T15:40:55.557Z,8.15
2022-07-26T15:43:48.986Z,3.97
2022-07-26T15:46:18.365Z,4.20
2022-07-26T15:48:50.111Z,6.65
2022-07-26T15:51:22.732Z,5.90
2022-07-26T15:53:53.982Z,6.50
2022-07-26T15:56:24.445Z,5.10
2022-07-26T15:58:55.044Z,9.95
2022-07-26T16:01:25.610Z,3.03
2022-07-26T16:03:56.360Z,5.22
2022-07-26T16:06:26.778Z,3.97
2022-07-26T16:09:15.865Z,9.48
2022-07-26T16:11:48.434Z,3.75
2022-07-26T16:14:19.301Z,3.80
2022-07-26T16:16:50.667Z,5.28
2022-07-26T16:19:21.307Z,6.85
2022-07-26T16:21:51.960Z,6.05
2022-07-26T16:24:22.719Z,3.67
2022-07-26T16:26:54.003Z,5.35
2022-07-26T16:29:25.367Z,9.75
2022-07-26T16:31:57.431Z,5.25
2022-07-26T16:34:28.777Z,6.32
2022-07-26T16:36:59.286Z,4.28
2022-07-26T16:39:30.190Z,4.57
2022-07-26T16:42:04.702Z,4.78
2022-07-26T16:44:38.215Z,5.03
2022-07-26T16:47:08.825Z,3.65
2022-07-26T16:49:39.434Z,8.02
2022-07-26T16:52:09.943Z,5.07
2022-07-26T16:54:40.520Z,7.47
2022-07-26T16:57:11.254Z,5.20
2022-07-26T16:59:41.828Z,4.55
2022-07-26T17:02:12.604Z,9.43
2022-07-26T17:04:43.168Z,7.30
2022-07-26T17:07:28.867Z,8.43
2022-07-26T17:09:59.418Z,6.70
2022-07-26T17:12:29.925Z,3.80
2022-07-26T17:15:00.579Z,4.65
2022-07-26T17:17:31.156Z,5.88
2022-07-26T17:20:01.665Z,4.75
2022-07-26T17:22:32.203Z,3.55
2022-07-26T17:25:02.924Z,4.80
2022-07-26T17:27:33.406Z,7.50
2022-07-26T17:30:07.081Z,7.50
2022-07-26T17:32:39.322Z,8.48
2022-07-26T17:35:10.618Z,3.08
2022-07-26T17:37:41.126Z,3.30
2022-07-26T17:40:12.733Z,8.02
2022-07-26T17:42:43.159Z,8.40
2022-07-26T17:45:13.736Z,4.93
2022-07-26T17:47:44.203Z,4.35
2022-07-26T17:50:35.383Z,7.68
2022-07-26T17:53:05.749Z,3.67
2022-07-26T17:55:36.426Z,8.40
2022-07-26T17:58:06.962Z,3.75
2022-07-26T18:00:38.065Z,6.93
2022-07-26T18:03:08.488Z,9.02
2022-07-26T18:05:41.432Z,6.88
2022-07-26T18:08:13.273Z,4.88
2022-07-26T18:10:47.565Z,4.63
2022-07-26T18:13:21.032Z,9.48
2022-07-26T18:15:52.251Z,8.20
2022-07-26T18:18:23.062Z,4.95
2022-07-26T18:20:53.944Z,6.20
2022-07-26T18:23:24.570Z,8.23
2022-07-26T18:25:55.146Z,4.45
2022-07-26T18:28:26.121Z,5.07
2022-07-26T18:30:57.647Z,6.00
2022-07-26T18:33:28.572Z,7.45
2022-07-26T18:36:02.891Z,5.35
2022-07-26T18:38:33.414Z,7.63
2022-07-26T18:41:04.051Z,10.20
2022-07-26T18:43:35.241Z,4.57
2022-07-26T18:46:06.320Z,6.07
2022-07-26T18:48:37.405Z,5.43
2022-07-26T18:51:12.572Z,7.30
2022-07-26T18:53:43.835Z,5.05
2022-07-26T18:56:14.731Z,10.45
2022-07-26T18:58:45.391Z,12.68
2022-07-26T19:01:15.942Z,14.57
2022-07-26T19:03:46.724Z,11.70
2022-07-26T19:06:17.258Z,9.30
2022-07-26T19:08:47.757Z,8.50
2022-07-26T19:11:18.324Z,9.45
2022-07-26T19:13:48.906Z,13.80
2022-07-26T19:16:20.137Z,4.88
2022-07-26T19:18:55.375Z,4.60
2022-07-26T19:21:27.697Z,4.97
2022-07-26T19:23:58.185Z,4.45
2022-07-26T19:26:28.886Z,7.30
2022-07-26T19:28:59.445Z,8.38
2022-07-26T19:31:30.493Z,11.55
2022-07-26T19:34:01.135Z,9.43
2022-07-26T19:36:31.673Z,4.65
2022-07-26T19:39:02.533Z,5.80
2022-07-26T19:41:33.300Z,8.38
2022-07-26T19:44:04.011Z,5.47
2022-07-26T19:46:34.706Z,7.40
2022-07-26T19:49:06.171Z,10.65
2022-07-26T19:51:36.582Z,7.90
2022-07-26T19:54:07.614Z,7.60
2022-07-26T19:56:38.122Z,12.05
2022-07-26T19:59:09.003Z,9.57
2022-07-26T20:01:39.713Z,5.80
2022-07-26T20:04:10.688Z,5.78
2022-07-26T20:06:41.163Z,5.57
2022-07-26T20:09:11.952Z,8.43
2022-07-26T20:11:44.088Z,10.65
2022-07-26T20:14:14.569Z,10.23
2022-07-26T20:16:45.397Z,12.68
2022-07-26T20:19:16.054Z,11.40
2022-07-26T20:21:46.860Z,14.57
2022-07-26T20:24:18.620Z,13.32
2022-07-26T20:26:49.264Z,7.97
2022-07-26T20:29:19.981Z,9.10
2022-07-26T20:31:51.037Z,11.32
2022-07-26T20:34:21.508Z,7.43
2022-07-26T20:36:54.792Z,8.60
2022-07-26T20:39:27.461Z,10.80
2022-07-26T20:41:58.746Z,8.70
2022-07-26T20:44:31.968Z,6.97
2022-07-26T20:47:02.507Z,12.32
2022-07-26T20:49:33.151Z,6.40
2022-07-26T20:52:06.223Z,11.88
2022-07-26T20:54:36.895Z,9.60
2022-07-26T20:57:07.492Z,7.07
2022-07-26T20:59:39.434Z,5.40
2022-07-26T21:02:10.217Z,7.47
2022-07-26T21:04:40.734Z,13.20
2022-07-26T21:07:11.298Z,5.63
2022-07-26T21:09:42.499Z,13.65
2022-07-26T21:12:13.163Z,5.97
2022-07-26T21:14:43.746Z,6.28
2022-07-26T21:17:14.347Z,7.75
2022-07-26T21:19:44.953Z,11.75
2022-07-26T21:22:15.735Z,4.70
2022-07-26T21:24:46.208Z,11.25
2022-07-26T21:27:17.053Z,5.72
2022-07-26T21:29:47.607Z,7.97
2022-07-26T21:32:18.746Z,10.57
2022-07-26T21:34:49.313Z,12.23
2022-07-26T21:37:20.476Z,5.57
2022-07-26T21:39:51.265Z,16.08
2022-07-26T21:42:21.877Z,8.90
2022-07-26T21:44:57.419Z,4.75
2022-07-26T21:47:28.142Z,12.35
2022-07-26T21:49:58.536Z,13.07
2022-07-26T21:52:29.188Z,5.65
2022-07-26T21:54:59.723Z,7.80
2022-07-26T21:57:30.346Z,7.55
2022-07-26T22:00:00.841Z,7.72
2022-07-26T22:02:31.426Z,9.45
2022-07-26T22:05:02.450Z,8.30
2022-07-26T22:07:32.991Z,10.27
2022-07-26T22:10:03.508Z,6.32
2022-07-26T22:12:34.083Z,14.00
2022-07-26T22:15:04.546Z,11.80
2022-07-26T22:17:35.835Z,6.10
2022-07-26T22:20:08.369Z,15.07
2022-07-26T22:22:39.502Z,6.85
2022-07-26T22:25:10.484Z,10.68
2022-07-26T22:27:41.034Z,11.70
2022-07-26T22:30:12.777Z,5.68
2022-07-26T22:32:44.236Z,6.63
2022-07-26T22:35:14.986Z,12.02
2022-07-26T22:37:46.011Z,8.30
2022-07-26T22:40:16.934Z,13.13
2022-07-26T22:42:48.474Z,11.80
2022-07-26T22:45:19.000Z,10.25
2022-07-26T22:47:56.461Z,9.68
2022-07-26T22:50:27.673Z,7.40
2022-07-26T22:52:58.575Z,12.40
2022-07-26T22:55:29.766Z,16.45
2022-07-26T22:58:00.560Z,11.15
2022-07-26T23:00:31.363Z,8.50
2022-07-26T23:03:02.127Z,9.52
2022-07-26T23:05:45.883Z,12.98
2022-07-26T23:11:08.514Z,7.10
2022-07-26T23:13:39.003Z,8.85
2022-07-26T23:16:09.572Z,18.48
2022-07-26T23:18:40.120Z,16.05
2022-07-26T23:21:10.616Z,11.85
2022-07-26T23:23:41.177Z,18.00
2022-07-26T23:26:11.770Z,12.88
2022-07-26T23:28:42.224Z,11.40
2022-07-26T23:31:14.048Z,12.05
2022-07-26T23:33:52.441Z,11.35
2022-07-26T23:36:29.160Z,13.00
2022-07-26T23:39:02.310Z,16.80
2022-07-26T23:41:42.338Z,15.13
2022-07-26T23:44:12.894Z,11.15
2022-07-26T23:46:43.488Z,24.98
2022-07-26T23:49:14.460Z,20.80
2022-07-26T23:51:45.313Z,26.85
2022-07-26T23:54:15.812Z,32.85
2022-07-26T23:56:46.884Z,30.52
2022-07-26T23:59:17.619Z,36.88
